Time;durP1;ratioP1;P1;durP2;ratioP2;P2;SDS_P1;SDS_P2;PMS_P1;PMS_P2;Temp;Humidity;BMP_temperature;BMP_pressure;BME280_temperature;BME280_humidity;BME280_pressure;Samples;Min_cycle;Max_cycle;Signal;HPM_P1;HPM_P2
2023/05/09 00:00:36;;;;;;;43.35;33.95;;;15.80;99.90;;;;;;5153541;27;20483;-38
2023/05/09 00:03:04;;;;;;;42.60;33.25;;;15.80;99.90;;;;;;5149938;27;20395;-38
2023/05/09 00:05:30;;;;;;;55.60;38.17;;;15.80;99.90;;;;;;5152628;27;20462;-39
2023/05/09 00:07:56;;;;;;;54.75;39.33;;;15.80;99.90;;;;;;5147825;27;20034;-41
2023/05/09 00:10:22;;;;;;;54.90;41.90;;;15.80;99.90;;;;;;5152125;27;20068;-41
2023/05/09 00:12:48;;;;;;;56.90;41.22;;;15.80;99.90;;;;;;5150284;27;20038;-39
2023/05/09 00:15:14;;;;;;;60.03;40.35;;;15.80;99.90;;;;;;5149547;27;20054;-39
2023/05/09 00:17:40;;;;;;;55.60;40.65;;;15.80;99.90;;;;;;5151788;27;20125;-40
2023/05/09 00:20:10;;;;;;;67.30;44.50;;;15.80;99.90;;;;;;5166436;27;20049;-38
2023/05/09 00:22:37;;;;;;;59.83;40.92;;;15.80;99.90;;;;;;5153949;27;20053;-38
2023/05/09 00:25:04;;;;;;;58.35;40.83;;;15.90;99.90;;;;;;5174130;27;20443;-38
2023/05/09 00:27:30;;;;;;;85.82;48.70;;;15.90;99.90;;;;;;5172948;27;20130;-38
2023/05/09 00:29:56;;;;;;;87.47;50.03;;;15.90;99.90;;;;;;5139119;27;20065;-38
2023/05/09 00:32:22;;;;;;;80.95;47.60;;;15.80;99.90;;;;;;5145044;27;20038;-41
2023/05/09 00:34:47;;;;;;;81.65;47.58;;;15.80;99.90;;;;;;5160498;27;20030;-39
2023/05/09 00:37:13;;;;;;;81.53;48.03;;;15.80;99.90;;;;;;5152659;27;20037;-37
2023/05/09 00:39:39;;;;;;;85.15;48.95;;;15.80;99.90;;;;;;5146339;27;20077;-39
2023/05/09 00:42:05;;;;;;;83.20;46.63;;;15.80;99.90;;;;;;5144274;27;20530;-39
2023/05/09 00:44:31;;;;;;;78.47;46.95;;;15.80;99.90;;;;;;5150998;27;20126;-40
2023/05/09 00:46:57;;;;;;;80.10;46.67;;;15.80;99.90;;;;;;5151735;27;20034;-42
2023/05/09 00:49:23;;;;;;;80.75;46.25;;;15.80;99.90;;;;;;5177952;27;20091;-42
2023/05/09 00:51:48;;;;;;;77.30;45.22;;;15.80;99.90;;;;;;5154886;27;20031;-38
2023/05/09 00:54:14;;;;;;;86.88;49.88;;;15.80;99.90;;;;;;5152410;27;20052;-38
2023/05/09 00:56:40;;;;;;;72.82;44.00;;;15.70;99.90;;;;;;5177474;27;20566;-40
2023/05/09 00:59:06;;;;;;;77.30;44.63;;;15.70;99.90;;;;;;5148949;27;20086;-38
2023/05/09 01:01:32;;;;;;;79.30;44.90;;;15.70;99.90;;;;;;5142369;27;20044;-38
2023/05/09 01:03:58;;;;;;;77.57;44.28;;;15.70;99.90;;;;;;5145014;27;20038;-39
2023/05/09 01:06:43;;;;;;;82.63;45.40;;;15.70;99.90;;;;;;5166163;27;20395;-38
2023/05/09 01:09:24;;;;;;;84.03;46.30;;;15.70;99.90;;;;;;5163363;27;20038;-40
2023/05/09 01:12:09;;;;;;;81.68;46.78;;;15.70;99.90;;;;;;5145334;27;20073;-42
2023/05/09 01:15:07;;;;;;;79.40;45.42;;;15.60;99.90;;;;;;5169125;27;20525;-38
2023/05/09 01:17:45;;;;;;;74.45;44.38;;;15.60;99.90;;;;;;5112760;27;20450;-42
2023/05/09 01:20:29;;;;;;;82.20;46.15;;;15.60;99.90;;;;;;5152496;27;20045;-39
2023/05/09 01:23:24;;;;;;;88.28;47.33;;;15.60;99.90;;;;;;5164379;27;20396;-40
2023/05/09 01:26:11;;;;;;;71.90;43.42;;;15.60;99.90;;;;;;5145116;27;20042;-38
2023/05/09 01:28:55;;;;;;;81.95;46.58;;;15.60;99.90;;;;;;5151632;27;20035;-38
2023/05/09 01:31:23;;;;;;;71.28;42.75;;;15.50;99.90;;;;;;5157202;27;20411;-39
2023/05/09 01:33:55;;;;;;;75.20;44.25;;;15.50;99.90;;;;;;5151719;27;20087;-38
2023/05/09 01:36:22;;;;;;;72.35;44.40;;;15.50;99.90;;;;;;5150042;27;20027;-39
2023/05/09 01:38:50;;;;;;;83.88;48.60;;;15.60;99.90;;;;;;5154063;27;20071;-41
2023/05/09 01:41:18;;;;;;;80.70;44.97;;;15.50;99.90;;;;;;5154077;27;20038;-39
2023/05/09 01:43:46;;;;;;;83.05;46.97;;;15.50;99.90;;;;;;5152663;27;20049;-39
2023/05/09 01:46:15;;;;;;;71.80;44.42;;;15.50;99.90;;;;;;5147581;27;20034;-38
2023/05/09 01:48:43;;;;;;;97.88;47.75;;;15.50;99.90;;;;;;5149297;27;20041;-40
2023/05/09 01:51:13;;;;;;;83.85;47.17;;;15.50;99.90;;;;;;5168191;27;20030;-37
2023/05/09 01:53:40;;;;;;;119.93;54.67;;;15.40;99.90;;;;;;5146288;27;20043;-38
2023/05/09 01:56:08;;;;;;;103.72;53.40;;;15.50;99.90;;;;;;5151080;27;20092;-39
2023/05/09 01:58:37;;;;;;;88.10;49.33;;;15.50;99.90;;;;;;5145221;27;20034;-38
2023/05/09 02:01:04;;;;;;;87.78;47.22;;;15.40;99.90;;;;;;5142738;27;20038;-38
2023/05/09 02:03:32;;;;;;;113.70;53.53;;;15.40;99.90;;;;;;5148124;27;20146;-38
2023/05/09 02:06:00;;;;;;;87.10;49.83;;;15.50;99.90;;;;;;5152496;27;20038;-39
2023/05/09 02:08:26;;;;;;;98.10;51.97;;;15.40;99.90;;;;;;5163778;27;20069;-39
2023/05/09 02:10:52;;;;;;;86.65;48.25;;;15.40;99.90;;;;;;5137774;27;20492;-40
2023/05/09 02:13:18;;;;;;;81.57;48.45;;;15.40;99.90;;;;;;5139832;27;20042;-38
2023/05/09 02:15:44;;;;;;;84.93;49.35;;;15.40;99.90;;;;;;5146157;27;20506;-39
2023/05/09 02:18:10;;;;;;;90.68;48.83;;;15.40;99.90;;;;;;5148692;27;20138;-39
2023/05/09 02:20:36;;;;;;;69.55;45.30;;;15.40;99.90;;;;;;5140273;27;20113;-38
2023/05/09 02:23:02;;;;;;;66.53;43.28;;;15.30;99.90;;;;;;5146617;27;20086;-38
2023/05/09 02:25:29;;;;;;;59.58;42.90;;;15.40;99.90;;;;;;5153560;27;20479;-37
2023/05/09 02:27:57;;;;;;;56.30;40.35;;;15.30;99.90;;;;;;5144580;27;20026;-39
2023/05/09 02:30:24;;;;;;;67.40;43.63;;;15.30;99.90;;;;;;5142504;27;20557;-40
2023/05/09 02:33:02;;;;;;;61.22;43.60;;;15.30;99.90;;;;;;5146069;27;20117;-40
2023/05/09 02:35:28;;;;;;;58.97;41.38;;;15.30;99.90;;;;;;5142035;27;20037;-39
2023/05/09 02:37:55;;;;;;;57.72;41.67;;;15.30;99.90;;;;;;5149663;27;20038;-38
2023/05/09 02:40:22;;;;;;;49.20;38.13;;;15.30;99.90;;;;;;5148611;27;20057;-42
2023/05/09 02:42:47;;;;;;;61.10;42.63;;;15.20;99.90;;;;;;5148258;27;20121;-40
2023/05/09 02:45:13;;;;;;;50.03;37.20;;;15.10;99.90;;;;;;5148772;27;20443;-38
2023/05/09 02:47:39;;;;;;;49.92;37.25;;;15.10;99.90;;;;;;5149084;27;20503;-39
2023/05/09 02:50:07;;;;;;;51.88;39.35;;;15.10;99.90;;;;;;5139714;27;20047;-40
2023/05/09 02:52:33;;;;;;;44.15;36.50;;;15.10;99.90;;;;;;5170244;27;20121;-41
2023/05/09 02:54:58;;;;;;;49.50;38.03;;;15.00;99.90;;;;;;5145868;27;20065;-39
2023/05/09 02:57:24;;;;;;;48.60;35.92;;;15.00;99.90;;;;;;5146548;27;20037;-38
2023/05/09 02:59:50;;;;;;;39.63;31.80;;;15.00;99.90;;;;;;5140695;27;20042;-41
2023/05/09 03:02:17;;;;;;;37.28;30.65;;;14.90;99.90;;;;;;5127626;27;20037;-38
2023/05/09 03:04:42;;;;;;;42.65;32.83;;;14.90;99.90;;;;;;5137605;27;20038;-39
2023/05/09 03:07:08;;;;;;;37.53;30.30;;;14.90;99.90;;;;;;5156607;27;20094;-38
2023/05/09 03:09:34;;;;;;;33.40;27.88;;;14.80;99.90;;;;;;5147453;27;20114;-39
2023/05/09 03:12:00;;;;;;;33.05;28.20;;;14.80;99.90;;;;;;5150357;27;20045;-37
2023/05/09 03:14:26;;;;;;;30.95;27.58;;;14.80;99.90;;;;;;5144296;27;20038;-38
2023/05/09 03:16:51;;;;;;;27.45;24.35;;;14.70;99.90;;;;;;5147726;27;20026;-38
2023/05/09 03:19:17;;;;;;;28.15;24.20;;;14.70;99.90;;;;;;5149191;27;20506;-38
2023/05/09 03:21:43;;;;;;;33.25;27.55;;;14.70;99.90;;;;;;5141433;27;20501;-40
2023/05/09 03:24:09;;;;;;;30.63;25.77;;;14.70;99.90;;;;;;5168477;27;20042;-38
2023/05/09 03:26:35;;;;;;;32.17;26.35;;;14.60;99.90;;;;;;5166149;27;20119;-40
2023/05/09 03:29:01;;;;;;;30.33;26.23;;;14.60;99.90;;;;;;5151314;27;20506;-38
2023/05/09 03:31:27;;;;;;;31.70;25.45;;;14.60;99.90;;;;;;5156973;27;20396;-40
2023/05/09 03:33:53;;;;;;;34.78;27.05;;;14.50;99.90;;;;;;5138775;27;20034;-37
2023/05/09 03:36:19;;;;;;;27.08;23.83;;;14.50;99.90;;;;;;5149503;27;20030;-42
2023/05/09 03:38:45;;;;;;;28.52;23.92;;;14.50;99.90;;;;;;5143998;27;20121;-39
2023/05/09 03:41:12;;;;;;;35.72;26.55;;;14.50;99.90;;;;;;5153409;27;20080;-40
2023/05/09 03:43:38;;;;;;;27.23;24.30;;;14.50;99.90;;;;;;5149244;27;20038;-38
2023/05/09 03:46:04;;;;;;;29.73;25.00;;;14.40;99.90;;;;;;5141743;27;20058;-37
2023/05/09 03:48:30;;;;;;;29.40;23.63;;;14.40;99.90;;;;;;5138557;27;20039;-39
2023/05/09 03:50:55;;;;;;;28.27;23.52;;;14.40;99.90;;;;;;5154767;27;20026;-37
2023/05/09 03:53:21;;;;;;;27.05;22.67;;;14.40;99.90;;;;;;5144945;27;20122;-40
2023/05/09 03:55:47;;;;;;;27.63;23.38;;;14.40;99.90;;;;;;5153490;27;20488;-38
2023/05/09 03:58:13;;;;;;;25.23;21.88;;;14.40;99.90;;;;;;5148238;27;20034;-40
2023/05/09 04:00:40;;;;;;;25.38;21.60;;;14.40;99.90;;;;;;5152581;27;20129;-40
2023/05/09 04:03:06;;;;;;;28.00;22.50;;;14.30;99.90;;;;;;5174541;27;20178;-39
2023/05/09 04:05:35;;;;;;;26.15;22.45;;;14.30;99.90;;;;;;5140191;27;20070;-37
2023/05/09 04:08:01;;;;;;;24.63;21.83;;;14.30;99.90;;;;;;5172131;27;20035;-41
2023/05/09 04:10:27;;;;;;;25.70;21.63;;;14.30;99.90;;;;;;5153535;27;20034;-38
2023/05/09 04:12:53;;;;;;;24.35;21.70;;;14.30;99.90;;;;;;5150089;27;20041;-37
2023/05/09 04:15:18;;;;;;;31.45;25.20;;;14.30;99.90;;;;;;5155581;27;20506;-37
2023/05/09 04:17:44;;;;;;;29.55;24.70;;;14.30;99.90;;;;;;5148013;27;20118;-38
2023/05/09 04:20:11;;;;;;;27.85;22.67;;;14.30;99.90;;;;;;5172010;27;20042;-41
2023/05/09 04:22:37;;;;;;;27.42;22.95;;;14.30;99.90;;;;;;5178133;27;20384;-40
2023/05/09 04:25:03;;;;;;;32.58;26.35;;;14.30;99.90;;;;;;5155372;27;20043;-40
2023/05/09 04:27:29;;;;;;;24.02;21.42;;;14.30;99.90;;;;;;5151170;27;20038;-37
2023/05/09 04:29:55;;;;;;;27.08;22.38;;;14.30;99.90;;;;;;5138221;27;20494;-40
2023/05/09 04:32:21;;;;;;;26.10;23.17;;;14.30;99.90;;;;;;5152255;27;20503;-37
2023/05/09 04:34:48;;;;;;;28.60;22.90;;;14.30;99.90;;;;;;5154021;27;20552;-37
2023/05/09 04:37:14;;;;;;;26.17;22.60;;;14.30;99.90;;;;;;5174947;27;20463;-39
2023/05/09 04:39:40;;;;;;;27.45;23.17;;;14.40;99.90;;;;;;5175935;27;20034;-42
2023/05/09 04:42:06;;;;;;;26.85;22.35;;;14.40;99.90;;;;;;5150985;27;20039;-41
2023/05/09 04:44:32;;;;;;;28.10;23.90;;;14.50;99.90;;;;;;5175336;27;20097;-39
2023/05/09 04:46:58;;;;;;;28.38;23.45;;;14.50;99.90;;;;;;5151790;27;20487;-41
2023/05/09 04:49:24;;;;;;;29.70;24.38;;;14.50;99.90;;;;;;5175209;27;20088;-43
2023/05/09 04:51:50;;;;;;;27.00;23.25;;;14.50;99.90;;;;;;5146414;27;20658;-39
2023/05/09 04:54:16;;;;;;;23.98;21.40;;;14.60;99.90;;;;;;5150355;27;20290;-40
2023/05/09 04:56:42;;;;;;;26.50;23.08;;;14.60;99.90;;;;;;5153091;27;20652;-40
2023/05/09 04:59:08;;;;;;;30.40;23.52;;;14.60;99.90;;;;;;5151431;27;20064;-38
2023/05/09 05:01:33;;;;;;;25.90;23.10;;;14.60;99.90;;;;;;5152594;27;20045;-38
2023/05/09 05:03:59;;;;;;;27.00;23.08;;;14.50;99.90;;;;;;5146221;27;20437;-38
2023/05/09 05:06:25;;;;;;;29.10;24.25;;;14.60;99.90;;;;;;5171215;27;20045;-40
2023/05/09 05:08:51;;;;;;;27.33;22.83;;;14.60;99.90;;;;;;5145906;27;20082;-39
2023/05/09 05:11:17;;;;;;;28.40;24.30;;;14.70;99.90;;;;;;5147465;27;20110;-40
2023/05/09 05:13:43;;;;;;;26.40;23.60;;;14.70;99.90;;;;;;5176167;27;20030;-39
2023/05/09 05:16:09;;;;;;;27.48;23.77;;;14.70;99.90;;;;;;5121542;27;20035;-40
2023/05/09 05:18:35;;;;;;;26.85;23.92;;;14.70;99.90;;;;;;5144362;27;20091;-38
2023/05/09 05:21:01;;;;;;;27.55;23.45;;;14.70;99.90;;;;;;5147744;27;20649;-38
2023/05/09 05:23:27;;;;;;;29.08;25.20;;;14.70;99.90;;;;;;5173918;27;20069;-41
2023/05/09 05:25:53;;;;;;;29.08;24.27;;;14.70;99.90;;;;;;5136946;27;20391;-38
2023/05/09 05:28:19;;;;;;;27.40;23.60;;;14.70;99.90;;;;;;5149397;27;20041;-40
2023/05/09 05:30:45;;;;;;;25.85;22.73;;;14.70;99.90;;;;;;5156754;27;20030;-39
2023/05/09 05:33:11;;;;;;;26.17;23.38;;;14.80;99.90;;;;;;5157288;27;20042;-38
2023/05/09 05:35:36;;;;;;;27.73;22.90;;;14.80;99.90;;;;;;5150845;27;20154;-39
2023/05/09 05:38:02;;;;;;;26.95;22.70;;;14.80;99.90;;;;;;5151168;27;20034;-39
2023/05/09 05:40:28;;;;;;;26.17;23.02;;;14.80;99.90;;;;;;5153513;27;20034;-38
2023/05/09 05:42:54;;;;;;;29.85;25.50;;;14.80;99.90;;;;;;5149690;27;20121;-40
2023/05/09 05:45:20;;;;;;;29.77;24.92;;;14.80;99.90;;;;;;5173364;27;20072;-41
2023/05/09 05:47:46;;;;;;;26.25;23.15;;;14.80;99.90;;;;;;5145641;27;20689;-42
2023/05/09 05:50:12;;;;;;;28.77;24.17;;;14.90;99.90;;;;;;5169862;27;20435;-40
2023/05/09 05:52:38;;;;;;;26.98;23.52;;;14.90;99.90;;;;;;5149395;27;20090;-40
2023/05/09 05:55:05;;;;;;;31.10;25.05;;;14.90;99.90;;;;;;5166943;27;20038;-38
2023/05/09 05:57:33;;;;;;;30.20;25.17;;;14.90;99.90;;;;;;5167286;27;20042;-40
2023/05/09 05:59:59;;;;;;;29.60;25.10;;;14.90;99.90;;;;;;5142466;27;20039;-41
2023/05/09 06:02:24;;;;;;;28.13;22.90;;;14.90;99.90;;;;;;5143784;27;20049;-40
2023/05/09 06:04:50;;;;;;;31.60;24.75;;;15.00;99.90;;;;;;5169514;27;20488;-42
2023/05/09 06:07:16;;;;;;;28.77;24.17;;;15.00;99.90;;;;;;5141944;27;20027;-39
2023/05/09 06:09:41;;;;;;;30.55;25.67;;;15.00;99.90;;;;;;5147508;27;20114;-39
2023/05/09 06:12:07;;;;;;;32.55;27.35;;;15.00;99.90;;;;;;5146217;27;20436;-38
2023/05/09 06:14:33;;;;;;;31.80;25.65;;;15.10;99.90;;;;;;5151514;27;20501;-39
2023/05/09 06:16:59;;;;;;;31.40;25.15;;;15.10;99.90;;;;;;5140343;27;20041;-41
2023/05/09 06:19:25;;;;;;;30.73;26.70;;;15.10;99.90;;;;;;5145011;27;20486;-38
2023/05/09 06:21:50;;;;;;;30.85;25.77;;;15.10;99.90;;;;;;5152366;27;20120;-39
2023/05/09 06:24:16;;;;;;;30.13;24.63;;;15.10;99.90;;;;;;5144166;27;20039;-42
2023/05/09 06:26:42;;;;;;;29.40;25.40;;;15.20;99.90;;;;;;5141536;27;20039;-41
2023/05/09 06:29:08;;;;;;;30.92;25.45;;;15.30;99.90;;;;;;5142194;27;20110;-42
2023/05/09 06:31:37;;;;;;;32.10;25.80;;;15.30;99.90;;;;;;5130860;27;20656;-40
2023/05/09 06:34:06;;;;;;;32.95;26.73;;;15.40;99.90;;;;;;5145689;27;20106;-39
2023/05/09 06:36:33;;;;;;;31.10;26.55;;;15.40;99.90;;;;;;5139638;27;20042;-41
2023/05/09 06:38:59;;;;;;;32.17;27.13;;;15.50;99.90;;;;;;5144612;27;20068;-42
2023/05/09 06:41:25;;;;;;;30.90;25.48;;;15.50;99.90;;;;;;5135209;27;20043;-39
2023/05/09 06:43:51;;;;;;;31.48;26.60;;;15.50;99.90;;;;;;5139128;27;20045;-39
2023/05/09 06:46:17;;;;;;;37.17;28.92;;;15.60;99.90;;;;;;5140839;27;20117;-41
2023/05/09 06:48:43;;;;;;;39.28;27.50;;;15.60;99.90;;;;;;5146886;27;20142;-38
2023/05/09 06:51:10;;;;;;;39.50;29.98;;;15.60;99.90;;;;;;5144457;27;20052;-39
2023/05/09 06:53:36;;;;;;;40.90;29.27;;;15.60;99.90;;;;;;5153639;27;20033;-39
2023/05/09 06:56:02;;;;;;;38.10;28.33;;;15.60;99.90;;;;;;5150860;27;20026;-42
2023/05/09 06:58:28;;;;;;;39.42;30.65;;;15.70;99.90;;;;;;5147050;27;20551;-39
2023/05/09 07:00:53;;;;;;;40.95;29.42;;;15.70;99.90;;;;;;5138538;27;20541;-39
2023/05/09 07:03:19;;;;;;;42.10;30.08;;;15.70;99.90;;;;;;5142767;27;20042;-38
2023/05/09 07:05:45;;;;;;;43.10;30.92;;;15.70;99.90;;;;;;5130191;27;20118;-39
2023/05/09 07:08:11;;;;;;;44.17;31.77;;;15.70;99.90;;;;;;5140914;27;20476;-38
2023/05/09 07:10:37;;;;;;;42.72;30.80;;;15.70;99.90;;;;;;5150074;27;20167;-40
2023/05/09 07:13:03;;;;;;;45.22;32.47;;;15.70;99.90;;;;;;5151830;27;20034;-39
2023/05/09 07:15:29;;;;;;;45.30;31.50;;;15.70;99.90;;;;;;5148030;27;20475;-42
2023/05/09 07:17:55;;;;;;;46.65;31.55;;;15.70;99.90;;;;;;5144674;27;20030;-39
2023/05/09 07:20:20;;;;;;;46.67;32.22;;;15.80;99.90;;;;;;5147212;27;20034;-38
2023/05/09 07:22:46;;;;;;;48.25;33.25;;;15.80;99.90;;;;;;5143852;27;20042;-39
2023/05/09 07:25:12;;;;;;;46.33;33.00;;;15.80;99.90;;;;;;5141948;27;20377;-38
2023/05/09 07:27:38;;;;;;;48.47;31.27;;;15.90;99.90;;;;;;5144904;27;20492;-40
2023/05/09 07:30:05;;;;;;;47.05;32.15;;;15.90;99.90;;;;;;5149130;27;20166;-39
2023/05/09 07:32:30;;;;;;;47.92;32.85;;;15.90;99.90;;;;;;5140493;27;20091;-40
2023/05/09 07:34:57;;;;;;;51.90;32.83;;;16.00;99.90;;;;;;5151008;27;20031;-41
2023/05/09 07:37:22;;;;;;;45.83;31.05;;;16.00;99.90;;;;;;5140927;27;20540;-39
2023/05/09 07:39:48;;;;;;;50.00;34.17;;;16.10;99.90;;;;;;5137888;27;20042;-39
2023/05/09 07:42:15;;;;;;;46.63;31.10;;;16.10;99.90;;;;;;5141365;27;20035;-39
2023/05/09 07:44:40;;;;;;;48.47;33.22;;;16.20;99.90;;;;;;5152999;27;20042;-39
2023/05/09 07:47:07;;;;;;;42.10;30.05;;;16.30;99.90;;;;;;5146111;27;20031;-42
2023/05/09 07:49:34;;;;;;;43.38;30.77;;;16.30;99.90;;;;;;5145497;27;20120;-38
2023/05/09 07:52:00;;;;;;;44.05;31.50;;;16.30;99.90;;;;;;5147538;27;20400;-40
2023/05/09 07:54:26;;;;;;;49.13;31.35;;;16.40;99.90;;;;;;5151055;27;20033;-41
2023/05/09 07:56:52;;;;;;;45.80;31.98;;;16.50;99.90;;;;;;5154969;27;20041;-39
2023/05/09 07:59:18;;;;;;;46.72;33.15;;;16.50;99.90;;;;;;5144520;27;20030;-39
2023/05/09 08:01:44;;;;;;;45.17;32.00;;;16.50;99.90;;;;;;5140780;27;20038;-38
2023/05/09 08:04:09;;;;;;;49.15;32.88;;;16.60;99.90;;;;;;5140651;27;20492;-39
2023/05/09 08:06:35;;;;;;;51.38;34.17;;;16.60;99.90;;;;;;5151003;27;20035;-39
2023/05/09 08:09:01;;;;;;;51.42;34.05;;;16.70;99.90;;;;;;5147677;27;20035;-38
2023/05/09 08:11:27;;;;;;;47.00;33.33;;;16.80;99.90;;;;;;5137648;27;20110;-39
2023/05/09 08:13:53;;;;;;;45.30;32.08;;;16.80;99.90;;;;;;5142511;27;20476;-38
2023/05/09 08:16:19;;;;;;;46.25;32.08;;;16.90;99.90;;;;;;5142446;27;20033;-38
2023/05/09 08:18:45;;;;;;;47.67;31.52;;;16.90;99.90;;;;;;5150156;27;20038;-40
2023/05/09 08:21:10;;;;;;;48.60;32.03;;;17.00;99.90;;;;;;5143601;27;20084;-41
2023/05/09 08:23:36;;;;;;;45.75;32.08;;;17.00;99.90;;;;;;5146174;27;20077;-39
2023/05/09 08:26:02;;;;;;;43.53;30.55;;;17.00;99.90;;;;;;5142705;27;20042;-39
2023/05/09 08:28:28;;;;;;;45.80;31.17;;;17.00;99.90;;;;;;5142743;27;20039;-40
2023/05/09 08:30:55;;;;;;;43.15;30.73;;;17.00;99.90;;;;;;5142861;27;20120;-39
2023/05/09 08:33:21;;;;;;;46.47;31.10;;;17.00;99.90;;;;;;5146827;27;20041;-41
2023/05/09 08:35:53;;;;;;;46.42;31.52;;;17.00;99.90;;;;;;5145332;27;20037;-39
2023/05/09 08:38:19;;;;;;;43.17;30.85;;;16.90;99.90;;;;;;5138997;27;20037;-39
2023/05/09 08:40:45;;;;;;;41.00;29.65;;;16.90;99.90;;;;;;5144241;27;20117;-38
2023/05/09 08:43:11;;;;;;;41.80;28.83;;;16.90;99.90;;;;;;5148255;27;20117;-38
2023/05/09 08:45:48;;;;;;;41.92;29.58;;;16.90;99.90;;;;;;5148856;27;20034;-38
2023/05/09 08:48:18;;;;;;;41.28;29.80;;;16.90;99.90;;;;;;5151175;27;20480;-41
2023/05/09 08:50:44;;;;;;;43.85;30.52;;;17.00;99.90;;;;;;5137080;27;20045;-39
2023/05/09 08:53:13;;;;;;;44.33;30.55;;;17.10;99.90;;;;;;5147123;27;20042;-38
2023/05/09 08:55:38;;;;;;;42.38;29.13;;;17.20;99.90;;;;;;5153148;27;20033;-40
2023/05/09 08:58:05;;;;;;;42.85;28.92;;;17.20;99.90;;;;;;5150973;27;20041;-41
2023/05/09 09:00:32;;;;;;;39.67;27.52;;;17.30;99.90;;;;;;5149642;27;20045;-39
2023/05/09 09:03:04;;;;;;;40.33;28.83;;;17.40;99.90;;;;;;5144716;27;20118;-39
2023/05/09 09:05:32;;;;;;;38.85;28.42;;;17.50;99.90;;;;;;5145977;27;20066;-38
2023/05/09 09:07:59;;;;;;;36.63;27.80;;;17.70;99.90;;;;;;5141328;27;20042;-39
2023/05/09 09:10:27;;;;;;;38.92;28.85;;;18.00;99.90;;;;;;5150540;27;20459;-41
2023/05/09 09:12:56;;;;;;;37.10;28.35;;;18.40;99.90;;;;;;5141921;27;20083;-38
2023/05/09 09:15:25;;;;;;;40.33;28.23;;;18.60;99.90;;;;;;5149730;27;20033;-40
2023/05/09 09:17:55;;;;;;;37.65;27.23;;;18.70;99.90;;;;;;5149131;27;20170;-38
2023/05/09 09:20:22;;;;;;;36.20;28.17;;;18.70;99.90;;;;;;5149521;27;20507;-39
2023/05/09 09:22:51;;;;;;;36.88;26.77;;;18.60;99.90;;;;;;5139118;27;20104;-39
2023/05/09 09:25:16;;;;;;;38.53;27.80;;;18.50;99.90;;;;;;5145210;27;20035;-41
2023/05/09 09:27:42;;;;;;;36.05;26.35;;;18.50;99.90;;;;;;5149724;27;20049;-39
2023/05/09 09:30:10;;;;;;;32.72;25.52;;;18.50;99.90;;;;;;5164567;27;20034;-42
2023/05/09 09:32:37;;;;;;;37.40;27.05;;;18.50;99.90;;;;;;5151542;27;20057;-39
2023/05/09 09:35:08;;;;;;;34.75;26.77;;;18.50;99.90;;;;;;5150940;27;20035;-39
2023/05/09 09:37:34;;;;;;;33.17;25.70;;;18.40;99.90;;;;;;5141268;27;20027;-41
2023/05/09 09:40:00;;;;;;;33.58;25.25;;;18.40;99.90;;;;;;5152116;27;20484;-38
2023/05/09 09:42:26;;;;;;;34.20;26.75;;;18.50;99.90;;;;;;5142886;27;20023;-40
2023/05/09 09:45:12;;;;;;;37.15;26.52;;;18.50;99.90;;;;;;5154485;27;20026;-38
2023/05/09 09:47:38;;;;;;;33.50;25.25;;;18.70;99.90;;;;;;5140605;27;20050;-40
2023/05/09 09:50:11;;;;;;;32.05;25.42;;;18.90;99.90;;;;;;5152427;27;20066;-39
2023/05/09 09:52:56;;;;;;;32.97;25.20;;;19.00;99.90;;;;;;5146467;27;20031;-38
2023/05/09 09:55:23;;;;;;;30.77;24.65;;;19.20;99.90;;;;;;5146813;27;20075;-39
2023/05/09 09:57:50;;;;;;;32.08;24.65;;;19.30;99.90;;;;;;5146234;27;20480;-40
2023/05/09 10:00:34;;;;;;;34.45;25.52;;;19.40;99.90;;;;;;5154226;27;20090;-39
2023/05/09 10:03:00;;;;;;;31.40;24.13;;;19.50;99.90;;;;;;5154522;27;20387;-39
2023/05/09 10:05:28;;;;;;;35.10;23.70;;;19.70;99.90;;;;;;5156691;27;20038;-40
2023/05/09 10:07:57;;;;;;;30.08;24.80;;;19.90;99.90;;;;;;5143038;27;20035;-39
2023/05/09 10:10:34;;;;;;;31.17;24.20;;;20.10;99.90;;;;;;5155873;27;20065;-41
2023/05/09 10:13:09;;;;;;;30.60;24.15;;;20.10;99.90;;;;;;5144240;27;20523;-40
2023/05/09 10:15:36;;;;;;;29.38;23.17;;;19.90;99.90;;;;;;5140999;27;20499;-38
2023/05/09 10:18:03;;;;;;;30.77;24.20;;;19.80;99.90;;;;;;5142503;27;20034;-39
2023/05/09 10:20:30;;;;;;;31.50;23.48;;;19.80;99.90;;;;;;5148809;27;20367;-39
2023/05/09 10:23:00;;;;;;;31.13;25.25;;;19.80;99.90;;;;;;5141741;27;20031;-40
2023/05/09 10:25:48;;;;;;;29.67;23.33;;;20.00;99.90;;;;;;5141446;27;20479;-39
2023/05/09 10:28:17;;;;;;;30.15;22.60;;;20.00;99.90;;;;;;5163215;27;20406;-41
2023/05/09 10:30:49;;;;;;;29.73;24.08;;;20.10;99.90;;;;;;5146039;27;20414;-40
2023/05/09 10:33:20;;;;;;;28.13;23.25;;;20.30;99.90;;;;;;5149713;27;20034;-40
2023/05/09 10:35:46;;;;;;;29.08;23.02;;;20.70;99.90;;;;;;5149302;27;20042;-41
2023/05/09 10:38:13;;;;;;;29.58;23.33;;;20.90;99.90;;;;;;5141679;27;20043;-41
2023/05/09 10:40:45;;;;;;;28.65;23.02;;;21.00;99.90;;;;;;5136800;27;20071;-40
2023/05/09 10:43:11;;;;;;;27.33;24.08;;;21.20;99.90;;;;;;5142510;27;20035;-39
2023/05/09 10:45:38;;;;;;;27.20;22.15;;;21.30;99.90;;;;;;5145050;27;20022;-40
2023/05/09 10:48:07;;;;;;;31.80;24.05;;;21.20;99.90;;;;;;5152492;27;20049;-42
2023/05/09 10:50:34;;;;;;;32.38;25.27;;;20.90;99.90;;;;;;5140745;27;20365;-39
2023/05/09 10:53:07;;;;;;;31.70;25.42;;;20.60;99.90;;;;;;5137530;27;20042;-39
2023/05/09 10:55:53;;;;;;;31.05;25.13;;;20.50;99.90;;;;;;5148897;27;20126;-39
2023/05/09 10:58:22;;;;;;;29.60;23.92;;;20.40;99.90;;;;;;5143800;27;20031;-38
2023/05/09 11:00:49;;;;;;;29.92;23.90;;;20.60;99.90;;;;;;5143073;27;20043;-38
2023/05/09 11:03:18;;;;;;;31.63;24.05;;;20.80;99.90;;;;;;5149715;27;20069;-39
2023/05/09 11:05:45;;;;;;;31.20;24.40;;;21.00;99.90;;;;;;5139579;27;20034;-39
2023/05/09 11:08:25;;;;;;;29.42;24.15;;;21.00;99.90;;;;;;5146474;27;20034;-39
2023/05/09 11:10:55;;;;;;;27.30;22.98;;;20.90;99.90;;;;;;5148303;27;20031;-40
2023/05/09 11:13:28;;;;;;;29.55;23.90;;;20.90;99.90;;;;;;5148043;27;20054;-40
2023/05/09 11:16:00;;;;;;;33.28;26.17;;;20.70;99.90;;;;;;5147554;27;20113;-40
2023/05/09 11:18:32;;;;;;;31.33;25.30;;;20.50;99.90;;;;;;5136461;27;20441;-39
2023/05/09 11:20:58;;;;;;;28.27;24.55;;;20.30;99.90;;;;;;5143430;27;20027;-39
2023/05/09 11:23:26;;;;;;;28.65;24.67;;;20.20;99.90;;;;;;5149523;27;20030;-40
2023/05/09 11:25:52;;;;;;;31.20;24.98;;;20.10;99.90;;;;;;5134995;27;20030;-40
2023/05/09 11:28:27;;;;;;;28.48;24.30;;;20.10;99.90;;;;;;5121133;27;20035;-38
2023/05/09 11:31:07;;;;;;;31.08;24.45;;;20.00;99.90;;;;;;5146958;27;20611;-40
2023/05/09 11:33:35;;;;;;;31.45;24.38;;;19.90;99.90;;;;;;5122517;27;20030;-40
2023/05/09 11:36:18;;;;;;;31.15;25.38;;;20.00;99.90;;;;;;5149290;27;20042;-39
2023/05/09 11:38:47;;;;;;;31.38;25.33;;;20.20;99.90;;;;;;5159014;27;20504;-37
2023/05/09 11:41:14;;;;;;;32.00;25.00;;;20.30;99.90;;;;;;5142053;27;20026;-39
2023/05/09 11:43:43;;;;;;;31.63;24.23;;;20.60;99.90;;;;;;5139964;27;20034;-37
2023/05/09 11:46:08;;;;;;;31.35;24.70;;;20.70;99.90;;;;;;5148568;27;20030;-38
2023/05/09 11:48:38;;;;;;;30.15;23.42;;;21.00;99.90;;;;;;5148625;27;20052;-40
2023/05/09 11:51:04;;;;;;;27.98;22.20;;;21.20;99.90;;;;;;5153889;27;20661;-36
2023/05/09 11:53:31;;;;;;;26.00;22.02;;;21.30;99.90;;;;;;5139898;27;20045;-37
2023/05/09 11:55:56;;;;;;;24.27;20.88;;;21.40;99.90;;;;;;5151625;27;20092;-36
2023/05/09 11:58:22;;;;;;;23.55;19.67;;;21.40;99.90;;;;;;5154915;27;20042;-38
2023/05/09 12:00:48;;;;;;;24.02;21.02;;;21.40;99.90;;;;;;5149018;27;20034;-35
2023/05/09 12:03:14;;;;;;;26.48;21.58;;;21.50;99.90;;;;;;5141780;27;20034;-36
2023/05/09 12:05:41;;;;;;;22.23;19.10;;;21.60;99.90;;;;;;5143409;27;20034;-37
2023/05/09 12:08:08;;;;;;;23.35;16.98;;;21.70;99.90;;;;;;5153140;27;20042;-36
2023/05/09 12:10:37;;;;;;;20.85;17.27;;;21.60;99.90;;;;;;5138889;27;20113;-37
2023/05/09 12:13:03;;;;;;;21.05;18.23;;;21.60;99.90;;;;;;5143301;27;20544;-36
2023/05/09 12:15:29;;;;;;;16.80;15.00;;;21.60;99.90;;;;;;5154602;27;20038;-36
2023/05/09 12:18:03;;;;;;;15.65;13.73;;;21.70;99.90;;;;;;5140290;27;20030;-39
2023/05/09 12:20:43;;;;;;;16.85;14.63;;;21.70;99.90;;;;;;5138403;27;20057;-36
2023/05/09 12:23:10;;;;;;;14.27;12.85;;;21.80;99.90;;;;;;5166493;27;20091;-38
2023/05/09 12:25:36;;;;;;;14.27;12.85;;;21.80;99.90;;;;;;5135822;27;20039;-36
2023/05/09 12:28:02;;;;;;;16.08;13.40;;;21.70;99.90;;;;;;5144131;27;20560;-36